Home > Products > Valid Products > TAF

000
FTUS43 KMQT 251100
TAFCMX
TAF
KCMX 251137Z 2512/2612 VRB03KT P6SM SCT120
     FM251600 18007KT P6SM BKN050
     FM252100 21006KT P6SM -SHRA BKN035=



000
FTUS43 KMQT 251100
TAFSAW
TAF
KSAW 251137Z 2512/2612 18005KT P6SM SCT120
     FM251500 20008KT P6SM BKN050
     FM260000 18007KT P6SM -SHRA BKN050
     FM260400 20007KT P6SM -SHRA BKN035
      AMD LTD TO CLD VIS AND WIND 2602/2610=



000
FTUS43 KMQT 250500
TAFCMX
TAF
KCMX 250527Z 2506/2606 VRB03KT P6SM SCT060 BKN250
     FM251600 18007KT P6SM BKN050 PROB30 2518/2524 -SHRA
     FM260000 21006KT P6SM BKN035 PROB30 2600/2606 -SHRA=



000
FTUS43 KMQT 250500
TAFSAW
TAF
KSAW 250527Z 2506/2606 18005KT P6SM SCT060
     FM251500 20008KT P6SM BKN050
     FM260000 18007KT P6SM BKN050 PROB30 2600/2606 -SHRA
      AMD LTD TO CLD VIS AND WIND TIL 251000=



000
FTUS43 KMQT 242300
TAFCMX
TAF
KCMX 242320Z 2500/2524 26008KT P6SM SKC
     FM250200 VRB04KT P6SM SCT050 BKN250
     FM251600 18007KT P6SM BKN050 PROB30 2518/2524 -SHRA=



000
FTUS43 KMQT 242300
TAFSAW
TAF
KSAW 242320Z 2500/2524 04007KT P6SM SCT050
     FM250200 VRB03KT P6SM SCT050
     FM251500 20008KT P6SM BKN050
      AMD LTD TO CLD VIS AND WIND 2502/2510=



000
FTUS43 KMQT 241700
TAFSAW
TAF
KSAW 241728Z 2418/2518 03007KT P6SM SCT050
     FM250200 VRB03KT P6SM SCT050
     FM251500 20008KT P6SM BKN050 OVC100
      AMD LTD TO CLD VIS AND WIND 2502/2510=



000
FTUS43 KMQT 241700
TAFCMX
TAF
KCMX 241728Z 2418/2518 29008KT P6SM SKC
     FM250100 VRB04KT P6SM SCT050 OVC100
     FM251600 18007KT P6SM -SHRA BKN050=



000
FTUS43 KMQT 241100
TAFSAW
TAF
KSAW 241133Z 2412/2512 VRB03KT P6SM SKC
     FM241600 03007KT P6SM SCT050
     FM250200 VRB03KT P6SM FEW050
      AMD LTD TO CLD VIS AND WIND 2502/2510=



000
FTUS43 KMQT 241100
TAFCMX
TAF
KCMX 241133Z 2412/2512 30006KT P6SM SKC
     FM241500 29008KT P6SM SKC
     FM250000 VRB03KT P6SM SCT050=



000
FTUS43 KMQT 240500
TAFCMX
TAF
KCMX 240521Z 2406/2506 30004KT P6SM SKC
     FM241500 29008KT P6SM SKC
     FM250000 VRB03KT P6SM SCT050=



000
FTUS43 KMQT 240500
TAFSAW
TAF
KSAW 240521Z 2406/2506 VRB03KT P6SM SKC
     FM241600 03007KT P6SM SCT050
     FM250200 VRB03KT P6SM FEW050
      AMD LTD TO CLD VIS AND WIND TIL 241000=



000
FTUS43 KMQT 232300
TAFCMX
TAF
KCMX 232325Z 2400/2424 32005KT P6SM SKC
     FM240600 26004KT P6SM SKC
     FM241500 30008KT P6SM SCT040=



000
FTUS43 KMQT 232300
TAFSAW
TAF
KSAW 232325Z 2400/2424 03010KT P6SM FEW050
     FM240200 VRB03KT P6SM SKC
     FM241600 03007KT P6SM SCT050
      AMD LTD TO CLD VIS AND WIND 2402/2410=



000
FTUS43 KMQT 231700
TAFCMX
TAF
KCMX 231733Z 2318/2418 33007KT P6SM SCT040
     FM240600 26004KT 3SM BR SKC
     FM241300 30008KT P6SM SCT040=



000
FTUS43 KMQT 231700
TAFSAW
TAF
KSAW 231733Z 2318/2418 03010G18KT P6SM SCT040
     FM240200 VRB03KT P6SM SKC
     FM241500 30007KT P6SM SKC
      AMD LTD TO CLD VIS AND WIND 2402/2410=



000
FTUS43 KMQT 231400 AAA
TAFSAW
TAF AMD
KSAW 231408Z 2314/2412 02010G18KT P6SM SKC
     FM240200 VRB03KT P6SM SKC
      AMD LTD TO CLD VIS AND WIND 2402/2410=



000
FTUS43 KMQT 231100
TAFCMX
TAF
KCMX 231129Z 2312/2412 33005KT P6SM SCT070
     FM231800 32007KT P6SM SKC=



000
FTUS43 KMQT 231100
TAFSAW
TAF
KSAW 231129Z 2312/2412 35007KT P6SM SKC
     FM231500 03008KT P6SM SKC
     FM240200 VRB03KT P6SM SKC
      AMD LTD TO CLD VIS AND WIND 2402/2410=



000
FTUS43 KMQT 230500
TAFSAW
TAF
KSAW 230523Z 2306/2406 35007KT P6SM SCT035
     FM231500 03008KT P6SM SKC
     FM240200 VRB03KT P6SM SKC
      AMD LTD TO CLD VIS AND WIND TIL 231000=



000
FTUS43 KMQT 230500
TAFCMX
TAF
KCMX 230523Z 2306/2406 33005KT P6SM SCT070
     FM231800 32007KT P6SM SKC=



000
FTUS43 KMQT 230200 AAA
TAFSAW
TAF AMD
KSAW 230213Z 2302/2324 34012G21KT P6SM SCT020 BKN035
     FM230500 34007KT P6SM SKC
     FM231500 03008KT P6SM SKC
      AMD LTD TO CLD VIS AND WIND 2302/2310=



000
FTUS43 KMQT 230200 AAA
TAFCMX
TAF AMD
KCMX 230212Z 2302/2324 34010KT P6SM SCT070
     FM230400 32007KT P6SM SKC=



000
FTUS43 KMQT 222300
TAFCMX
TAF
KCMX 222320Z 2300/2324 34015KT P6SM BKN030
     FM230300 32007KT P6SM SKC=



000
FTUS43 KMQT 222300
TAFSAW
TAF
KSAW 222320Z 2300/2324 33015G25KT P6SM BKN030
     FM230500 34007KT P6SM SKC
     FM231500 03008KT P6SM SKC
      AMD LTD TO CLD VIS AND WIND 2302/2310=



000
FTUS43 KMQT 222100 AAB
TAFSAW
TAF AMD
KSAW 222157Z 2222/2318 33015G25KT P6SM BKN030
     FM230500 36011KT P6SM SKC
      AMD LTD TO CLD VIS AND WIND 2302/2310=



000
FTUS43 KMQT 222100 AAD
TAFCMX
TAF AMD
KCMX 222104Z 2221/2318 31015KT P6SM BKN025
     FM230000 31010G18KT P6SM BKN050
     FM230300 32007KT P6SM SKC=



000
FTUS43 KMQT 222000 AAC
TAFCMX
TAF AMD
KCMX 222015Z 2220/2318 31020G30KT P6SM BKN030
      TEMPO 2220/2221 SCT030
     FM222200 31015G25KT P6SM BKN030
     FM230000 31010G18KT P6SM BKN050
     FM230300 32007KT P6SM SKC=



000
FTUS43 KMQT 222000 AAB
TAFCMX
TAF AMD
KCMX 222011Z 2220/2318 28020G30KT P6SM BKN030
      TEMPO 2220/2221 SCT030
     FM222200 31015G25KT P6SM BKN030
     FM230000 31010G18KT P6SM BKN050
     FM230300 32007KT P6SM SKC=



000
FTUS43 KMQT 221800 AAA
TAFSAW
TAF AMD
KSAW 221842Z 2219/2318 30018G29KT P6SM BKN040
     FM230000 33015G25KT P6SM BKN030
     FM230500 36011KT P6SM SKC
      AMD LTD TO CLD VIS AND WIND 2302/2310=



000
FTUS43 KMQT 221800 AAA
TAFCMX
TAF AMD
KCMX 221841Z 2219/2318 28025G35KT P6SM BKN030
      TEMPO 2219/2221 SCT030
     FM222200 31020G30KT P6SM BKN030
     FM230000 31012G21KT P6SM BKN050
     FM230300 32007KT P6SM SKC=



000
FTUS43 KMQT 221700
TAFCMX
TAF
KCMX 221727Z 2218/2318 27025G35KT P6SM SCT025
     FM222100 31020G30KT P6SM BKN025
     FM230000 31012G21KT P6SM BKN050
     FM230300 32007KT P6SM SKC=



000
FTUS43 KMQT 221700
TAFSAW
TAF
KSAW 221727Z 2218/2318 30018G29KT P6SM BKN035
     FM230000 33015G25KT P6SM BKN030
     FM230500 36011KT P6SM SKC
      AMD LTD TO CLD VIS AND WIND 2302/2310=



000
FTUS43 KMQT 221600 AAE
TAFSAW
TAF AMD
KSAW 221641Z 2217/2312 24018G28KT P6SM BKN070
     FM221900 26018G28KT P6SM BKN025
     FM222300 33015G24KT P6SM BKN040
     FM230400 36010KT P6SM SCT060
      AMD LTD TO CLD VIS AND WIND 2302/2310=



    US Dept of Commerce
    National Oceanic and Atmospheric Administration
    National Weather Service
    1325 East West Highway
    Silver Spring, MD 20910
    Page Author: NWS Internet Services Team
Disclaimer
Information Quality
Credits
Glossary
Privacy Policy
Freedom of Information Act (FOIA)
About Us
Career Opportunities